createdAt,value
2023-06-04T00:02:14.963Z,69.80
2023-06-04T00:04:53.090Z,70.00
2023-06-04T00:07:38.932Z,69.90
2023-06-04T00:10:08.781Z,69.90
2023-06-04T00:12:38.386Z,69.90
2023-06-04T00:15:22.471Z,70.30
2023-06-04T00:17:59.327Z,70.00
2023-06-04T00:20:55.915Z,70.20
2023-06-04T00:23:40.995Z,70.30
2023-06-04T00:26:12.546Z,70.60
2023-06-04T00:28:51.962Z,71.00
2023-06-04T00:31:20.717Z,71.50
2023-06-04T00:33:51.178Z,71.40
2023-06-04T00:36:26.861Z,71.90
2023-06-04T00:39:07.423Z,72.30
2023-06-04T00:42:07.461Z,73.00
2023-06-04T00:44:37.686Z,73.10
2023-06-04T00:47:15.772Z,73.80
2023-06-04T00:49:57.961Z,74.40
2023-06-04T00:53:35.411Z,74.80
2023-06-04T00:56:09.416Z,75.30
2023-06-04T00:59:00.252Z,76.30
2023-06-04T01:01:59.217Z,77.60
2023-06-04T01:05:50.376Z,78.50
2023-06-04T01:08:35.112Z,79.20
2023-06-04T01:11:07.190Z,80.10
2023-06-04T01:13:35.961Z,80.20
2023-06-04T01:16:22.567Z,80.90
2023-06-04T01:18:57.702Z,81.80
2023-06-04T01:21:32.023Z,83.70
2023-06-04T01:24:38.142Z,84.30
2023-06-04T01:27:29.409Z,84.80
2023-06-04T01:30:02.917Z,85.90
2023-06-04T01:33:00.687Z,87.10
2023-06-04T01:40:14.221Z,89.00
2023-06-04T01:43:04.541Z,90.10
2023-06-04T01:45:53.315Z,90.60
2023-06-04T01:48:33.961Z,91.10
2023-06-04T01:51:32.248Z,91.70
2023-06-04T01:54:04.801Z,92.40
2023-06-04T01:56:33.599Z,93.10
2023-06-04T01:59:09.388Z,93.30
2023-06-04T02:02:13.815Z,93.70
2023-06-04T02:05:02.408Z,94.00
2023-06-04T02:10:39.534Z,94.40
2023-06-04T02:13:14.333Z,94.90
2023-06-04T02:15:47.345Z,95.00
2023-06-04T02:18:33.453Z,95.00
2023-06-04T02:21:03.035Z,95.30
2023-06-04T02:26:54.821Z,95.70
2023-06-04T02:29:49.515Z,95.90
2023-06-04T02:32:41.106Z,95.90
2023-06-04T02:38:31.424Z,96.60
2023-06-04T02:41:19.261Z,97.10
2023-06-04T02:43:56.826Z,97.30
2023-06-04T02:46:46.118Z,97.50
2023-06-04T02:49:35.112Z,97.90
2023-06-04T02:52:16.626Z,98.40
2023-06-04T02:54:56.067Z,98.50
2023-06-04T02:57:25.753Z,98.50
2023-06-04T02:59:57.330Z,98.60
2023-06-04T03:02:40.955Z,98.70
2023-06-04T03:05:14.238Z,98.70
2023-06-04T03:07:47.236Z,98.70
2023-06-04T03:10:25.058Z,98.80
2023-06-04T03:12:54.505Z,99.00
2023-06-04T03:15:21.610Z,99.10
2023-06-04T03:17:48.722Z,99.20
2023-06-04T03:20:15.757Z,99.40
2023-06-04T03:22:43.509Z,99.60
2023-06-04T03:25:11.116Z,99.70
2023-06-04T03:27:38.225Z,99.60
2023-06-04T03:30:07.645Z,99.30
2023-06-04T03:33:09.805Z,99.20
2023-06-04T03:35:37.061Z,99.00
2023-06-04T03:38:04.279Z,99.30
2023-06-04T03:40:37.762Z,99.50
2023-06-04T03:43:10.341Z,99.50
2023-06-04T03:45:54.147Z,99.50
2023-06-04T03:48:59.296Z,99.60
2023-06-04T03:51:36.363Z,99.60
2023-06-04T03:54:08.671Z,99.90
2023-06-04T03:57:07.356Z,99.90
2023-06-04T03:59:45.851Z,99.90
2023-06-04T04:02:25.053Z,99.90
2023-06-04T04:05:39.961Z,99.90
2023-06-04T04:16:34.767Z,99.90
2023-06-04T04:19:19.377Z,99.90
2023-06-04T04:27:28.535Z,99.90
2023-06-04T04:30:20.951Z,99.90
2023-06-04T04:33:26.932Z,99.90
2023-06-04T04:36:20.520Z,99.90
2023-06-04T04:39:24.919Z,99.90
2023-06-04T04:42:05.878Z,99.90
2023-06-04T04:44:55.692Z,99.90
2023-06-04T04:47:32.595Z,99.90
2023-06-04T04:50:26.428Z,99.90
2023-06-04T04:53:53.378Z,99.90
2023-06-04T05:09:14.039Z,99.90
2023-06-04T05:11:43.687Z,99.90
2023-06-04T05:14:11.956Z,99.90
2023-06-04T05:16:43.535Z,99.90
2023-06-04T05:19:14.672Z,99.90
2023-06-04T05:21:43.003Z,99.90
2023-06-04T05:24:11.357Z,99.90
2023-06-04T05:26:40.755Z,99.90
2023-06-04T05:29:14.807Z,99.90
2023-06-04T05:31:43.959Z,99.90
2023-06-04T05:34:17.451Z,99.90
2023-06-04T05:36:45.068Z,99.70
2023-06-04T05:39:12.174Z,99.40
2023-06-04T05:41:51.719Z,99.30
2023-06-04T05:44:19.591Z,99.30
2023-06-04T05:46:47.002Z,99.20
2023-06-04T05:49:15.011Z,99.40
2023-06-04T05:51:42.317Z,98.70
2023-06-04T05:54:09.577Z,98.60
2023-06-04T05:56:40.143Z,98.20
2023-06-04T05:59:07.464Z,98.10
2023-06-04T06:01:35.839Z,98.10
2023-06-04T06:04:03.123Z,97.50
2023-06-04T06:06:31.247Z,96.90
2023-06-04T06:08:59.185Z,96.60
2023-06-04T06:11:27.999Z,96.60
2023-06-04T06:13:56.066Z,96.30
2023-06-04T06:16:23.274Z,95.70
2023-06-04T06:18:50.549Z,95.70
2023-06-04T06:21:17.603Z,95.50
2023-06-04T06:23:46.059Z,95.10
2023-06-04T06:26:14.925Z,95.00
2023-06-04T06:28:47.837Z,94.80
2023-06-04T06:31:16.707Z,94.70
2023-06-04T06:33:43.742Z,94.50
2023-06-04T06:36:13.680Z,94.30
2023-06-04T06:38:41.775Z,94.10
2023-06-04T06:41:09.868Z,94.10
2023-06-04T06:43:37.281Z,94.00
2023-06-04T06:46:04.427Z,93.30
2023-06-04T06:48:31.468Z,93.10
2023-06-04T06:50:58.549Z,93.00
2023-06-04T06:53:25.954Z,92.50
2023-06-04T06:55:52.955Z,92.10
2023-06-04T06:58:20.051Z,91.50
2023-06-04T07:00:47.088Z,90.70
2023-06-04T07:03:14.524Z,90.50
2023-06-04T07:05:41.614Z,90.80
2023-06-04T07:08:08.745Z,91.00
2023-06-04T07:10:35.941Z,90.20
2023-06-04T07:13:03.039Z,90.00
2023-06-04T07:15:30.068Z,89.60
2023-06-04T07:17:57.399Z,88.70
2023-06-04T07:20:24.475Z,89.50
2023-06-04T07:22:51.752Z,88.80
2023-06-04T07:25:18.813Z,88.60
2023-06-04T07:27:46.156Z,87.90
2023-06-04T07:30:13.482Z,86.60
2023-06-04T07:32:40.516Z,85.60
2023-06-04T07:35:08.558Z,84.40
2023-06-04T07:37:35.904Z,84.30
2023-06-04T07:40:04.890Z,82.80
2023-06-04T07:42:31.958Z,82.30
2023-06-04T07:44:59.434Z,82.40
2023-06-04T07:47:26.893Z,81.70
2023-06-04T07:50:02.674Z,80.40
2023-06-04T07:52:30.655Z,79.70
2023-06-04T07:54:57.843Z,78.10
2023-06-04T07:57:25.938Z,76.60
2023-06-04T07:59:53.261Z,76.50
2023-06-04T08:02:20.706Z,75.80
2023-06-04T08:04:48.512Z,75.20
2023-06-04T08:07:15.644Z,73.90
2023-06-04T08:09:42.734Z,72.00
2023-06-04T08:12:11.025Z,73.50
2023-06-04T08:14:38.270Z,73.40
2023-06-04T08:17:05.970Z,71.30
2023-06-04T08:19:33.149Z,69.80
2023-06-04T08:22:01.187Z,70.00
2023-06-04T08:24:28.153Z,69.00
2023-06-04T08:26:55.148Z,67.50
2023-06-04T08:29:22.129Z,67.10
2023-06-04T08:31:49.129Z,68.40
2023-06-04T08:34:16.145Z,66.60
2023-06-04T08:36:43.154Z,64.40
2023-06-04T08:39:10.866Z,63.70
2023-06-04T08:41:43.740Z,60.50
2023-06-04T08:44:11.944Z,60.70
2023-06-04T08:46:43.359Z,60.00
2023-06-04T08:49:13.581Z,58.70
2023-06-04T08:51:41.786Z,59.10
2023-06-04T08:54:10.234Z,58.30
2023-06-04T08:56:38.749Z,57.30
2023-06-04T08:59:08.826Z,56.30
2023-06-04T09:01:40.183Z,55.10
2023-06-04T09:04:11.815Z,55.20
2023-06-04T09:06:42.542Z,54.60
2023-06-04T09:09:13.796Z,55.10
2023-06-04T09:11:51.973Z,54.30
2023-06-04T09:14:19.773Z,53.90
2023-06-04T09:16:52.884Z,54.20
2023-06-04T09:19:21.091Z,52.80
2023-06-04T09:21:56.329Z,52.20
2023-06-04T09:24:41.279Z,51.80
2023-06-04T09:27:20.070Z,51.90
2023-06-04T09:29:55.661Z,52.00
2023-06-04T09:32:32.170Z,50.20
2023-06-04T09:35:18.980Z,50.40
2023-06-04T09:37:58.071Z,49.50
2023-06-04T09:40:49.778Z,49.00
2023-06-04T09:43:42.634Z,47.90
2023-06-04T09:46:18.422Z,48.00
2023-06-04T09:48:47.896Z,47.50
2023-06-04T09:51:23.636Z,46.80
2023-06-04T09:54:00.397Z,47.30
2023-06-04T09:56:37.994Z,47.00
2023-06-04T09:59:12.516Z,47.10
2023-06-04T10:01:45.296Z,46.30
2023-06-04T10:04:14.969Z,45.90
2023-06-04T10:06:43.578Z,45.50
2023-06-04T10:09:13.630Z,46.10
2023-06-04T10:11:57.758Z,45.40
2023-06-04T10:14:33.173Z,44.90
2023-06-04T10:17:00.883Z,44.70
2023-06-04T10:19:29.344Z,44.70
2023-06-04T10:21:56.493Z,44.20
2023-06-04T10:24:25.361Z,43.70
2023-06-04T10:26:56.760Z,43.00
2023-06-04T10:29:26.574Z,43.40
2023-06-04T10:31:57.155Z,43.50
2023-06-04T10:34:24.375Z,44.30
2023-06-04T10:36:51.509Z,43.50
2023-06-04T10:39:33.346Z,43.10
2023-06-04T10:42:01.780Z,43.50
2023-06-04T10:44:29.402Z,43.60
2023-06-04T10:46:56.680Z,43.90
2023-06-04T10:49:36.082Z,42.90
2023-06-04T10:52:12.036Z,42.90
2023-06-04T10:54:39.126Z,42.60
2023-06-04T10:57:20.687Z,42.00
2023-06-04T11:00:02.395Z,42.60
2023-06-04T11:02:29.468Z,43.00
2023-06-04T11:05:06.813Z,42.80
2023-06-04T11:07:49.118Z,41.50
2023-06-04T11:10:18.668Z,42.10
2023-06-04T11:12:48.259Z,41.50
2023-06-04T11:15:16.722Z,40.70
2023-06-04T11:17:56.260Z,41.50
2023-06-04T11:20:24.442Z,41.20
2023-06-04T11:22:57.001Z,41.20
2023-06-04T11:25:28.024Z,40.20
2023-06-04T11:27:56.860Z,41.20
2023-06-04T11:30:25.031Z,41.80
2023-06-04T11:33:01.639Z,42.30
2023-06-04T11:35:28.682Z,42.10
2023-06-04T11:37:58.221Z,42.20
2023-06-04T11:40:27.801Z,39.80
2023-06-04T11:43:15.576Z,39.90
2023-06-04T11:46:07.749Z,41.70
2023-06-04T11:48:58.768Z,41.00
2023-06-04T11:51:35.102Z,41.30
2023-06-04T11:55:57.137Z,40.40
2023-06-04T11:59:20.803Z,40.30
2023-06-04T12:02:49.478Z,39.60
2023-06-04T12:14:28.533Z,39.90
2023-06-04T12:26:11.982Z,39.60
2023-06-04T12:38:22.992Z,38.60
2023-06-04T12:42:15.501Z,40.20
2023-06-04T12:44:53.776Z,40.10
2023-06-04T12:47:31.403Z,40.00
2023-06-04T12:50:49.835Z,39.60
2023-06-04T12:57:47.308Z,38.20
2023-06-04T13:00:16.270Z,39.60
2023-06-04T13:02:43.354Z,39.30
2023-06-04T13:05:10.433Z,39.00
2023-06-04T13:07:37.412Z,39.20
2023-06-04T13:10:07.182Z,39.60
2023-06-04T13:12:34.204Z,40.20
2023-06-04T13:15:09.810Z,40.30
2023-06-04T13:17:55.376Z,39.70
2023-06-04T13:20:40.931Z,39.90
2023-06-04T13:23:49.583Z,39.80
2023-06-04T13:26:19.708Z,40.10
2023-06-04T13:28:47.846Z,40.10
2023-06-04T13:31:15.195Z,39.20
2023-06-04T13:33:42.684Z,38.70
2023-06-04T13:36:09.766Z,39.40
2023-06-04T13:38:36.941Z,38.10
2023-06-04T13:41:03.872Z,39.60
2023-06-04T13:43:30.834Z,39.00
2023-06-04T13:45:57.889Z,39.30
2023-06-04T13:48:24.882Z,39.00
2023-06-04T13:50:51.903Z,39.00
2023-06-04T13:53:18.974Z,39.20
2023-06-04T13:55:46.784Z,40.70
2023-06-04T13:58:15.684Z,40.00
2023-06-04T14:00:42.676Z,40.10
2023-06-04T14:03:09.698Z,40.00
2023-06-04T14:05:36.756Z,39.60
2023-06-04T14:08:03.980Z,39.50
2023-06-04T14:10:30.971Z,39.10
2023-06-04T14:12:58.037Z,38.60
2023-06-04T14:15:25.149Z,39.00
2023-06-04T14:17:52.180Z,37.80
2023-06-04T14:20:19.197Z,38.60
2023-06-04T14:22:46.518Z,39.30
2023-06-04T14:25:13.573Z,39.60
2023-06-04T14:27:40.547Z,39.50
2023-06-04T14:30:08.725Z,40.10
2023-06-04T14:32:37.379Z,39.50
2023-06-04T14:35:05.649Z,38.80
2023-06-04T14:37:32.766Z,38.70
2023-06-04T14:39:59.831Z,39.50
2023-06-04T14:42:26.828Z,39.00
2023-06-04T14:44:53.844Z,38.80
2023-06-04T14:47:21.069Z,39.00
2023-06-04T14:49:48.015Z,37.70
2023-06-04T14:52:15.149Z,37.90
2023-06-04T14:54:42.090Z,38.80
2023-06-04T14:57:09.073Z,38.70
2023-06-04T14:59:37.997Z,39.20
2023-06-04T15:02:05.243Z,39.40
2023-06-04T15:04:32.261Z,38.90
2023-06-04T15:06:59.249Z,39.00
2023-06-04T15:09:26.351Z,39.60
2023-06-04T15:11:53.340Z,38.90
2023-06-04T15:14:20.340Z,39.60
2023-06-04T15:16:47.416Z,39.50
2023-06-04T15:19:14.396Z,39.60
2023-06-04T15:21:41.716Z,39.00
2023-06-04T15:24:10.546Z,39.00
2023-06-04T15:26:37.682Z,40.20
2023-06-04T15:29:04.721Z,40.90
2023-06-04T15:31:32.088Z,40.30
2023-06-04T15:33:59.102Z,40.60
2023-06-04T15:36:26.101Z,40.40
2023-06-04T15:38:53.166Z,39.90
2023-06-04T15:41:22.210Z,39.80
2023-06-04T15:43:52.154Z,39.60
2023-06-04T15:46:19.282Z,40.40
2023-06-04T15:48:48.242Z,40.90
2023-06-04T15:51:15.834Z,40.80
2023-06-04T15:53:52.788Z,40.30
2023-06-04T16:00:42.277Z,41.00
2023-06-04T16:03:42.574Z,40.00
2023-06-04T16:06:33.433Z,40.40
2023-06-04T16:09:00.457Z,40.30
2023-06-04T16:11:27.810Z,40.70
2023-06-04T16:13:54.892Z,40.50
2023-06-04T16:16:22.093Z,40.90
2023-06-04T16:18:50.056Z,40.70
2023-06-04T16:21:17.989Z,41.00
2023-06-04T16:23:45.256Z,41.40
2023-06-04T16:26:12.260Z,40.90
2023-06-04T16:28:39.507Z,40.60
2023-06-04T16:31:06.686Z,40.60
2023-06-04T16:33:33.887Z,41.50
2023-06-04T16:36:01.043Z,42.40
2023-06-04T16:38:28.154Z,42.20
2023-06-04T16:40:57.020Z,41.90
2023-06-04T16:43:24.052Z,42.20
2023-06-04T16:45:51.176Z,42.10
2023-06-04T16:48:18.212Z,42.20
2023-06-04T16:50:45.271Z,42.10
2023-06-04T16:53:12.320Z,42.00
2023-06-04T16:55:39.488Z,42.40
2023-06-04T16:58:12.744Z,41.80
2023-06-04T17:00:39.997Z,42.20
2023-06-04T17:03:07.159Z,42.50
2023-06-04T17:05:34.480Z,43.10
2023-06-04T17:08:01.588Z,42.90
2023-06-04T17:10:33.470Z,42.90
2023-06-04T17:13:01.612Z,43.20
2023-06-04T17:15:30.117Z,43.10
2023-06-04T17:18:01.896Z,43.60
2023-06-04T17:20:31.790Z,43.50
2023-06-04T17:23:03.119Z,43.30
2023-06-04T17:25:33.221Z,43.80
2023-06-04T17:28:00.948Z,44.00
2023-06-04T17:30:28.361Z,44.10
2023-06-04T17:32:56.215Z,44.30
2023-06-04T17:35:23.322Z,44.50
2023-06-04T17:37:51.040Z,44.50
2023-06-04T17:40:18.192Z,44.50
2023-06-04T17:42:47.631Z,44.40
2023-06-04T17:45:15.526Z,44.80
2023-06-04T17:47:42.596Z,45.00
2023-06-04T17:50:12.167Z,45.20
2023-06-04T17:52:40.055Z,45.30
2023-06-04T17:55:08.207Z,45.50
2023-06-04T17:57:36.601Z,45.40
2023-06-04T18:00:04.555Z,45.80
2023-06-04T18:02:39.048Z,45.90
2023-06-04T18:05:09.512Z,46.20
2023-06-04T18:07:36.818Z,46.40
2023-06-04T18:10:04.314Z,46.50
2023-06-04T18:12:32.763Z,46.70
2023-06-04T18:15:46.618Z,46.90
2023-06-04T18:18:41.514Z,46.90
2023-06-04T18:41:41.215Z,48.40
2023-06-04T18:44:38.854Z,48.50
2023-06-04T18:48:01.758Z,48.70
2023-06-04T18:51:15.266Z,48.60
2023-06-04T18:54:20.997Z,48.70
2023-06-04T18:57:11.839Z,48.90
2023-06-04T19:19:55.000Z,50.00
2023-06-04T19:22:27.232Z,50.20
2023-06-04T19:24:55.743Z,50.30
2023-06-04T19:27:28.810Z,50.50
2023-06-04T19:29:59.750Z,50.80
2023-06-04T19:32:33.186Z,51.20
2023-06-04T19:35:17.501Z,51.40
2023-06-04T19:41:06.347Z,52.10
2023-06-04T19:43:55.002Z,52.40
2023-06-04T19:46:26.076Z,52.60
2023-06-04T19:48:53.167Z,53.00
2023-06-04T19:51:22.059Z,53.50
2023-06-04T19:53:49.293Z,53.70
2023-06-04T19:56:16.380Z,53.80
2023-06-04T19:58:43.366Z,54.00
2023-06-04T20:01:10.414Z,54.40
2023-06-04T20:03:38.154Z,54.80
2023-06-04T20:06:09.539Z,55.60
2023-06-04T20:08:37.387Z,55.50
2023-06-04T20:11:04.456Z,55.50
2023-06-04T20:13:32.166Z,55.80
2023-06-04T20:15:59.152Z,56.10
2023-06-04T20:18:29.644Z,56.30
2023-06-04T20:20:56.710Z,56.60
2023-06-04T20:23:23.882Z,57.40
2023-06-04T20:25:51.588Z,58.10
2023-06-04T20:28:18.846Z,58.80
2023-06-04T20:30:46.124Z,59.40
2023-06-04T20:33:13.291Z,59.90
2023-06-04T20:35:40.460Z,60.30
2023-06-04T20:38:07.509Z,60.30
2023-06-04T20:40:34.520Z,60.80
2023-06-04T20:43:15.494Z,61.30
2023-06-04T20:46:06.839Z,61.70
2023-06-04T20:49:00.688Z,61.70
2023-06-04T20:51:28.083Z,62.10
2023-06-04T20:54:37.235Z,62.40
2023-06-04T20:57:12.306Z,62.50
2023-06-04T20:59:45.855Z,62.60
2023-06-04T21:02:20.846Z,63.10
2023-06-04T21:05:26.804Z,63.20
2023-06-04T21:08:20.105Z,63.50
2023-06-04T21:11:06.197Z,63.80
2023-06-04T21:13:43.023Z,63.50
2023-06-04T21:16:45.919Z,63.10
2023-06-04T21:19:15.418Z,62.80
2023-06-04T21:22:45.420Z,63.00
2023-06-04T21:25:14.041Z,63.60
2023-06-04T21:27:41.192Z,64.20
2023-06-04T21:30:08.881Z,64.40
2023-06-04T21:32:36.031Z,64.50
2023-06-04T21:35:03.273Z,65.50
2023-06-04T21:37:30.423Z,65.80
2023-06-04T21:39:57.439Z,66.00
2023-06-04T21:42:24.976Z,66.40
2023-06-04T21:44:52.423Z,67.10
2023-06-04T21:47:19.913Z,67.70
2023-06-04T21:49:47.034Z,68.10
2023-06-04T21:52:25.002Z,68.40
2023-06-04T21:54:53.302Z,69.10
2023-06-04T21:57:20.841Z,69.60
2023-06-04T21:59:48.081Z,69.90
2023-06-04T22:02:15.288Z,70.60
2023-06-04T22:04:43.442Z,71.00
2023-06-04T22:07:10.672Z,71.30
2023-06-04T22:09:37.728Z,72.10
2023-06-04T22:12:05.139Z,72.50
2023-06-04T22:14:32.238Z,72.80
2023-06-04T22:16:59.338Z,73.50
2023-06-04T22:19:26.367Z,73.90
2023-06-04T22:21:53.376Z,74.30
2023-06-04T22:24:20.970Z,74.50
2023-06-04T22:26:48.261Z,75.30
2023-06-04T22:29:15.465Z,75.80
2023-06-04T22:31:42.991Z,76.10
2023-06-04T22:34:10.062Z,76.50
2023-06-04T22:36:37.189Z,76.60
2023-06-04T22:39:04.519Z,77.00
2023-06-04T22:41:31.579Z,77.80
2023-06-04T22:43:58.665Z,78.30
2023-06-04T22:46:25.908Z,78.70
2023-06-04T22:48:53.758Z,79.40
2023-06-04T22:51:24.556Z,79.80
2023-06-04T22:53:51.927Z,80.30
2023-06-04T22:56:19.090Z,80.50
2023-06-04T22:58:46.626Z,81.00
2023-06-04T23:01:13.836Z,81.60
2023-06-04T23:03:41.089Z,82.00
2023-06-04T23:06:08.313Z,82.70
2023-06-04T23:08:35.299Z,83.10
2023-06-04T23:11:02.379Z,83.60
2023-06-04T23:13:29.402Z,83.50
2023-06-04T23:15:59.137Z,84.00
2023-06-04T23:18:26.295Z,84.20
2023-06-04T23:23:55.618Z,85.90
2023-06-04T23:26:30.316Z,86.70
2023-06-04T23:28:59.301Z,87.30
2023-06-04T23:31:30.691Z,87.80
2023-06-04T23:34:01.688Z,88.40
2023-06-04T23:36:30.579Z,89.20
2023-06-04T23:38:59.171Z,89.40
2023-06-04T23:41:30.611Z,90.10
2023-06-04T23:44:00.027Z,90.50
2023-06-04T23:46:34.498Z,90.70
2023-06-04T23:49:06.120Z,90.70
2023-06-04T23:52:26.166Z,91.10
2023-06-04T23:59:05.129Z,91.40
